Airfield :
LOGIN :

Register | Disclaimer

   EN    FR    IT 

 










Legend :    VFR   Marginal VFR   IFR   Intensive IFR   Very Intensive IFR
Visi :
Ceiling :
>= 8 km
>= 3000ft
5 to 8 km
1000 to 3000 ft
1500m to 5 km
500 to 1000 ft
800 to 1500m
200 to 500 ft
< 800m
< 200 ft
Symbols :   Thunderstorms  Fog  Heavy snow  Heavy precipitations  Wind > 20 kt
SIGMETs :     Misc.  Thunderstorms  Icing  Turbulence  Mountain Waves  Volcanic Ashes






- Airport Elevation : 1325 ft
- IATA code : EBU


LFMH - St-Etienne Boutheon

CURRENT METAR :
  • 152000Z AUTO VRB02KT 4100 BR NSC M03/M03 Q1003 TEMPO 1000 BCFG

EXPIRED METARs :
  • 151930Z AUTO VRB02KT 1800 0550 R17/1800U BCFG NSC M03/M03 Q1002 TEMPO 1000 BCFG
  • 151900Z AUTO 16004KT 7000 NSC M02/M02 Q1002 TEMPO 1000 BCFG
  • 151830Z AUTO 17004KT 8000 FEW002 M01/M02 Q1002 TEMPO 1000 BCFG
  • 151800Z AUTO 17006KT 8000 NSC M01/M02 Q1001 NOSIG
  • 151730Z AUTO 17008KT 5000 BR NSC M01/M01 Q1001 NOSIG

TAF AMD TAF LFMH
Valid from the 15 at 17:00 until the 16 at 15:00 UTC


151743Z 1517/1615 18005KT 7000 NSC
PROB40
TEMPO 1520/1607 1000 BCFG
PROB30
TEMPO 1523/1606 0500 FZFG VV///
TEMPO 1612/1615 BKN050
ATIS : +33 4 77 36 17 51



MET'MAP, your aeronautical weather chart ! - Copyright ORBIFLY December 2007 - Disclaimer

ORBIFLY MET'MAP TEAM :

Programming & Development : Alexandra Zaïnal
Concept & Development : Baudouin d'Aumeries
Co-Development & Prog : Marc-Olivier Méhu
Technical & hardware support : Manuel Goepfert

Contact : metmap@orbifly.com




SOURCES & CREDITS :

   NOAA